Latest Weather Observations for Kununurra Airport

IDD60801

Issued at 8:01 pm CST Monday 22 December 2014 (issued every 30 minutes, with the page automatically refreshed every 10 minutes)

About weather observations | Map of weather stations | Latest weather observations for NT | Other Formats
Station Details ID: 002056 Name: KUNUNURRA AERO Lat: -15.78 Lon: 128.71 Height: 44.0 m
Data from the previous 72 hours. | See also: Recent months at Kununurra Airport
Date/Time
CST
Temp
°C
App
Temp
°C
Dew
Point
Rel
Hum
%
Delta-T
°C
Wind Press
QNH
hPa
Press
MSL
hPa
Rain
since 9 am
mm
Dir
 
Spd
km/h
Gust
km/h
Spd
kts
Gust
kts
22/08:00pm 28.8 33.0 24.8 79 2.8 NNW 11 13 6 7 1007.2 - 0.0
22/07:30pm 29.2 32.8 24.3 75 3.4 N 13 15 7 8 1006.5 1006.1 0.0
22/07:00pm 29.3 34.6 25.2 78 2.9 NNE 7 11 4 6 1006.1 - 0.0
22/06:30pm 29.6 34.9 25.8 80 2.7 NNE 9 11 5 6 1005.7 - 0.0
22/06:00pm 29.7 34.5 24.4 73 3.7 N 7 9 4 5 1005.8 - 0.0
22/05:30pm 30.0 34.2 23.2 67 4.7 NNW 6 11 3 6 1005.5 - 0.0
22/05:00pm 28.8 31.8 23.4 72 3.7 NNE 13 15 7 8 1005.3 - 0.0
22/04:30pm 28.7 32.5 24.1 76 3.2 N 11 15 6 8 1005.4 1005.0 0.0
22/04:00pm 28.0 29.6 23.3 75 3.2 NNW 20 24 11 13 1006.1 - 0.0
22/03:30pm 28.1 31.4 23.9 78 2.9 N 13 17 7 9 1005.9 - 0.0
22/03:00pm 27.5 30.2 25.1 87 1.7 NNW 20 32 11 17 1006.7 - 0.0
22/02:30pm 30.0 29.6 23.0 66 4.8 NNW 30 43 16 23 1006.6 - 0.0
22/02:29pm 30.2 30.1 23.6 67 4.6 NNW 30 41 16 22 1006.6 - 0.0
22/02:00pm 35.2 37.3 22.5 47 8.8 N 15 24 8 13 1006.6 - 0.0
22/01:30pm 34.9 37.4 22.4 48 8.6 N 13 19 7 10 1007.1 1006.7 0.0
22/01:00pm 34.9 37.6 22.1 47 8.8 NNW 11 24 6 13 1007.7 - 0.0
22/12:30pm 34.3 36.9 22.6 50 8.1 NNW 13 20 7 11 1008.2 - 0.0
22/12:00pm 33.7 35.8 21.7 49 8.2 N 13 24 7 13 1008.6 - 0.0
22/11:30am 33.8 36.5 22.8 52 7.6 NNE 13 20 7 11 1009.0 - 0.0
22/11:00am 33.4 35.7 22.7 53 7.4 N 15 22 8 12 1009.1 - 0.0
22/10:30am 31.6 34.7 23.5 62 5.6 N 13 20 7 11 1009.2 1008.9 0.0
22/10:00am 30.9 33.4 23.2 63 5.3 NNE 15 22 8 12 1009.4 - 0.0
22/09:30am 30.9 33.8 23.2 63 5.3 NNE 13 19 7 10 1009.4 - 0.0
22/09:00am 29.7 32.8 23.6 69 4.2 NNE 13 17 7 9 1009.3 - 0.0
22/08:30am 29.2 32.5 23.9 73 3.7 N 13 17 7 9 1009.0 - 0.0
22/08:00am 29.7 34.7 23.9 71 4.0 N 4 7 2 4 1008.9 - 0.0
22/07:00am 26.9 32.0 25.0 89 1.3 ENE 7 11 4 6 1008.2 - 0.0
22/06:30am 26.7 32.1 25.1 91 1.1 WNW 6 7 3 4 1008.0 - 0.0
22/06:00am 26.6 31.9 24.9 90 1.2 NNW 6 6 3 3 1007.7 - 0.0
22/05:30am 26.7 31.7 24.5 88 1.5 NNW 6 9 3 5 1007.4 - 0.0
22/05:00am 27.0 33.2 24.6 87 1.7 CALM 0 6 0 3 1007.5 - 0.0
22/04:30am 26.9 32.0 24.6 87 1.6 WSW 6 7 3 4 1007.2 1006.8 0.0
22/04:00am 27.3 32.2 24.3 84 2.1 S 6 6 3 3 1007.1 - 0.0
22/03:30am 27.7 32.3 24.1 81 2.5 SSE 7 13 4 7 1007.0 - 0.0
22/03:00am 27.5 31.3 24.0 81 2.4 ESE 11 15 6 8 1007.0 - 0.0
22/02:30am 27.5 31.4 24.3 83 2.2 E 11 15 6 8 1007.3 - 0.0
22/02:00am 27.8 31.9 24.5 82 2.3 ENE 11 13 6 7 1007.5 - 0.0
22/01:30am 27.7 32.5 24.4 82 2.3 NE 7 11 4 6 1008.0 1007.7 0.0
22/01:00am 27.8 31.9 24.5 82 2.3 ESE 11 13 6 7 1008.1 - 0.0
22/12:30am 27.9 32.2 24.3 81 2.5 E 9 11 5 6 1008.6 - 0.0
22/12:00am 28.2 33.3 24.0 78 2.9 S 4 7 2 4 1008.9 - 0.0
 
Date/Time
CST
Temp
°C
App
Temp
°C
Dew
Point
Rel
Hum
%
Delta-T
°C
Wind Press
QNH
hPa
Press
MSL
hPa
Rain
since 9 am
mm
Dir
 
Spd
km/h
Gust
km/h
Spd
kts
Gust
kts
21/11:30pm 28.2 33.8 24.2 79 2.8 SW 2 6 1 3 1009.1 - 0.0
21/11:00pm 28.3 33.1 24.1 78 2.9 SSW 6 7 3 4 1009.4 - 0.0
21/10:30pm 28.5 32.6 23.9 76 3.2 SSW 9 13 5 7 1009.4 1009.1 0.0
21/10:00pm 28.1 33.4 25.0 83 2.2 SW 6 7 3 4 1008.9 - 0.0
21/09:30pm 28.2 33.4 24.8 82 2.4 SSW 6 9 3 5 1008.7 - 0.0
21/09:00pm 28.2 32.8 24.8 82 2.4 SSW 9 11 5 6 1008.1 - 0.0
21/08:30pm 28.3 33.1 24.4 79 2.7 S 7 9 4 5 1007.7 - 0.0
21/08:00pm 28.2 33.1 24.6 81 2.5 S 7 9 4 5 1007.6 - 0.0
21/07:30pm 28.5 32.8 24.3 78 2.9 SE 9 13 5 7 1006.8 1006.4 0.0
21/07:00pm 28.3 31.9 24.4 79 2.7 E 13 17 7 9 1006.3 - 0.0
21/06:30pm 28.6 32.2 24.3 77 3.0 E 13 15 7 8 1005.5 - 0.0
21/06:00pm 28.4 32.5 23.9 76 3.1 SSE 9 13 5 7 1005.2 - 0.0
21/05:30pm 29.0 32.6 24.4 76 3.2 SE 13 19 7 10 1005.7 - 0.0
21/05:00pm 29.2 31.6 24.3 75 3.4 SE 19 26 10 14 1006.1 - 0.0
21/04:30pm 31.1 32.0 22.0 58 6.2 ESE 20 24 11 13 1006.3 1005.9 0.0
21/04:00pm 31.5 32.8 21.6 55 6.7 N 17 24 9 13 1005.7 - 0.0
21/03:30pm 31.5 30.9 21.9 56 6.5 N 28 35 15 19 1005.2 - 0.0
21/03:04pm 31.2 30.1 22.9 61 5.7 N 33 57 18 31 1005.9 - 0.0
21/03:00pm 31.0 30.0 23.7 65 5.1 N 35 48 19 26 1005.7 - 0.0
21/02:42pm 34.9 34.5 22.3 48 8.7 N 28 46 15 25 1005.6 - 0.0
21/02:30pm 36.2 37.1 20.9 41 10.4 N 17 26 9 14 1005.1 - 0.0
21/02:00pm 36.6 37.5 20.8 39 10.7 N 17 24 9 13 1005.7 - 0.0
21/01:30pm 36.7 38.0 20.8 39 10.8 N 15 24 8 13 1006.4 1006.0 0.0
21/01:00pm 36.3 37.7 20.3 39 10.8 NNW 13 22 7 12 1007.2 - 0.0
21/12:30pm 36.0 37.5 20.6 40 10.4 N 13 19 7 10 1008.0 - 0.0
21/12:00pm 35.2 37.4 21.2 44 9.5 NNW 11 20 6 11 1008.6 - 0.0
21/11:30am 35.0 36.9 21.3 45 9.3 N 13 20 7 11 1008.8 - 0.0
21/11:00am 34.0 37.2 22.4 50 8.0 N 9 15 5 8 1009.0 - 0.0
21/10:30am 33.8 37.4 23.0 53 7.5 N 9 20 5 11 1009.1 1008.8 1.0
21/10:00am 32.7 36.5 23.5 58 6.4 NNE 9 13 5 7 1009.1 - 1.0
21/09:30am 31.4 36.3 24.4 66 4.9 NNE 6 11 3 6 1009.0 - 1.0
21/09:00am 30.7 35.8 24.9 71 4.1 NNE 7 7 4 4 1009.1 - 0.8
21/08:30am 29.5 35.1 25.4 78 2.9 NE 6 7 3 4 1008.9 - 0.8
21/08:00am 28.8 35.3 25.1 80 2.6 CALM 0 0 0 0 1008.4 - 0.8
21/07:30am 28.0 34.4 24.9 83 2.2 CALM 0 0 0 0 1008.2 1007.9 0.8
21/07:00am 26.8 33.2 24.9 89 1.3 CALM 0 0 0 0 1007.9 - 0.8
21/06:30am 26.9 32.4 24.6 87 1.6 S 4 7 2 4 1007.5 - 0.8
21/06:00am 26.7 32.0 24.4 87 1.6 WSW 4 6 2 3 1006.9 - 0.8
21/05:30am 26.4 32.5 25.1 92 0.9 W 2 7 1 4 1006.4 - 0.8
21/05:00am 26.8 32.8 24.2 86 1.8 CALM 0 0 0 0 1006.3 - 0.8
21/04:30am 26.6 31.7 24.1 86 1.7 SW 4 7 2 4 1006.6 1006.2 0.8
21/04:00am 26.8 31.0 24.1 85 1.9 SSW 9 9 5 5 1006.9 - 0.8
21/03:30am 27.1 30.4 23.8 82 2.3 E 13 17 7 9 1007.2 - 0.8
21/03:00am 27.9 30.0 23.8 78 2.8 E 19 22 10 12 1007.4 - 0.8
21/02:30am 28.9 32.8 25.5 82 2.4 ENE 15 17 8 9 1006.8 - 0.8
21/02:09am 28.8 34.6 25.8 84 2.1 NE 6 9 3 5 1006.8 - 0.8
21/02:00am 28.8 35.5 25.4 82 2.4 CALM 0 6 0 3 1006.9 - 0.8
21/01:50am 29.2 34.8 25.5 80 2.6 WNW 6 7 3 4 1007.0 - 0.6
21/01:30am 29.4 34.2 24.4 74 3.5 N 7 9 4 5 1007.3 1007.0 0.0
21/01:00am 29.2 35.0 25.2 79 2.8 N 4 7 2 4 1007.7 - 0.0
21/12:30am 29.5 34.0 24.6 75 3.4 N 9 9 5 5 1007.8 - 0.0
21/12:00am 30.0 34.5 24.6 73 3.8 N 9 11 5 6 1008.2 - 0.0
 
Date/Time
CST
Temp
°C
App
Temp
°C
Dew
Point
Rel
Hum
%
Delta-T
°C
Wind Press
QNH
hPa
Press
MSL
hPa
Rain
since 9 am
mm
Dir
 
Spd
km/h
Gust
km/h
Spd
kts
Gust
kts
20/11:30pm 30.2 36.0 25.1 74 3.6 N 4 6 2 3 1008.5 - 0.0
20/11:00pm 30.2 34.7 24.6 72 3.9 N 9 11 5 6 1008.5 - 0.0
20/10:30pm 30.2 34.6 24.5 71 4.0 N 9 11 5 6 1008.3 1008.0 0.0
20/10:00pm 30.4 34.2 24.1 69 4.4 N 11 13 6 7 1007.9 - 0.0
20/09:30pm 30.6 34.6 23.8 67 4.7 N 9 11 5 6 1007.5 - 0.0
20/09:00pm 30.9 35.1 23.5 64 5.1 NNW 7 11 4 6 1007.1 - 0.0
20/08:30pm 31.8 34.7 22.5 58 6.4 N 11 13 6 7 1006.8 - 0.0
20/08:00pm 31.9 35.4 22.9 59 6.2 N 9 13 5 7 1006.5 - 0.0
20/07:30pm 33.3 35.9 21.2 49 8.2 NNW 9 9 5 5 1005.9 1005.5 0.0
20/07:00pm 34.9 37.2 19.9 41 10.0 NNW 7 11 4 6 1005.4 - 0.0
20/06:30pm 36.6 38.7 19.0 35 11.6 SW 6 9 3 5 1004.9 - 0.0
20/06:00pm 36.7 38.4 18.5 34 12.0 WSW 7 11 4 6 1004.7 - 0.0
20/05:30pm 36.8 39.0 19.6 36 11.5 SSW 7 11 4 6 1004.6 - 0.0
20/05:00pm 36.3 37.4 18.9 36 11.5 WSW 11 17 6 9 1004.9 - 0.0
20/04:30pm 36.8 37.4 18.6 34 12.0 SSW 13 19 7 10 1005.3 1004.9 0.0
20/04:00pm 36.6 38.6 19.9 37 11.2 E 9 15 5 8 1005.6 - 0.0
20/03:30pm 35.7 36.5 18.1 35 11.5 SSE 11 19 6 10 1006.0 - 0.0
20/03:00pm 35.0 36.9 19.7 40 10.2 SE 9 15 5 8 1006.5 - 0.0
20/02:30pm 34.6 36.8 21.2 45 9.1 ESE 11 17 6 9 1007.0 - 0.0
20/02:00pm 34.1 35.4 19.3 41 9.8 ESE 11 15 6 8 1007.4 - 0.0
20/01:30pm 33.2 35.1 21.4 50 8.0 ESE 13 17 7 9 1008.0 1007.7 0.0
20/01:00pm 32.5 35.2 22.1 54 7.1 SE 11 17 6 9 1008.7 - 0.0
20/12:30pm 31.8 34.9 22.1 56 6.6 SSE 9 13 5 7 1009.3 - 0.0
20/12:00pm 31.7 35.0 22.5 58 6.3 S 9 13 5 7 1009.9 - 0.0
20/11:30am 31.5 34.8 22.6 59 6.1 SE 9 13 5 7 1010.3 - 0.0
20/11:00am 30.1 33.2 22.1 62 5.4 ENE 9 13 5 7 1010.8 - 0.0
20/10:30am 29.2 32.8 22.3 66 4.7 WNW 7 11 4 6 1011.2 1010.9 17.6
20/10:00am 27.7 31.4 23.9 80 2.6 WNW 11 15 6 8 1011.3 - 17.6
20/09:30am 27.2 31.1 24.3 84 2.0 NW 11 13 6 7 1011.5 - 17.6
20/09:00am 27.0 30.6 24.3 85 1.9 NNW 13 17 7 9 1011.5 - 17.6
20/08:30am 26.9 30.2 24.5 87 1.7 NNW 15 17 8 9 1011.2 - 17.6
20/08:00am 26.6 31.4 24.1 86 1.7 NNW 6 9 3 5 1010.3 - 17.6
20/07:30am 26.2 30.9 24.3 89 1.3 NNE 7 9 4 5 1010.0 1009.7 17.6
20/07:00am 26.1 30.7 23.8 87 1.6 S 6 7 3 4 1009.3 - 17.6
20/06:30am 25.8 30.0 24.1 90 1.2 SE 9 11 5 6 1008.7 - 17.6
20/06:00am 25.4 31.2 23.9 91 1.0 CALM 0 0 0 0 1008.8 - 17.6
20/05:30am 25.4 29.7 23.6 90 1.2 ESE 7 9 4 5 1008.5 - 17.6
20/05:00am 25.2 29.6 23.4 90 1.2 NE 6 9 3 5 1009.0 - 17.6
20/04:30am 25.2 29.3 23.3 89 1.3 WSW 7 11 4 6 1009.2 1008.9 17.6
20/04:00am 25.2 27.2 23.0 87 1.5 SW 17 22 9 12 1009.4 - 17.6
20/03:30am 25.4 31.4 24.2 93 0.8 CALM 0 9 0 5 1009.6 - 17.6
20/03:00am 25.2 29.3 24.0 93 0.8 W 9 11 5 6 1009.2 - 17.6
20/02:30am 25.0 28.3 23.8 93 0.8 SW 13 15 7 8 1009.3 - 17.6
20/02:00am 25.2 28.2 23.4 90 1.2 SW 13 20 7 11 1009.9 - 17.6
20/01:30am 24.9 28.2 23.9 94 0.7 WSW 13 17 7 9 1011.0 1010.7 17.6
20/01:00am 25.0 27.6 24.0 94 0.7 SW 17 22 9 12 1012.1 - 17.6
20/12:30am 25.5 28.8 24.5 94 0.7 SW 15 20 8 11 1012.5 - 17.4
20/12:00am 24.6 28.1 24.2 98 0.3 WNW 13 15 7 8 1012.5 - 16.8
 
Date/Time
CST
Temp
°C
App
Temp
°C
Dew
Point
Rel
Hum
%
Delta-T
°C
Wind Press
QNH
hPa
Press
MSL
hPa
Rain
since 9 am
mm
Dir
 
Spd
km/h
Gust
km/h
Spd
kts
Gust
kts
19/11:30pm 25.0 28.6 24.4 96 0.4 WNW 13 17 7 9 1013.3 - 15.6
19/11:14pm 25.1 29.3 24.7 98 0.3 WNW 11 13 6 7 1013.5 - 14.6
19/11:00pm 25.2 30.0 24.5 96 0.5 N 7 9 4 5 1013.6 - 13.6
19/10:57pm 25.1 29.9 24.4 96 0.5 N 7 9 4 5 1013.5 - 13.2
19/10:50pm 25.0 29.0 24.4 96 0.4 N 11 17 6 9 1013.3 - 12.8
19/10:30pm 25.3 29.2 24.3 94 0.7 N 11 17 6 9 1013.2 1012.9 10.6
19/10:21pm 25.9 29.4 24.2 90 1.2 NNE 13 19 7 10 1013.2 - 2.8
19/10:00pm 26.3 28.1 24.3 89 1.4 NNE 22 33 12 18 1012.1 - 1.0

Other Formats:

Comma delimited format used in spreadsheet applications
http://www.bom.gov.au/fwo/IDD60801/IDD60801.94216.axf

JavaScript Object Notation format (JSON) in row-major order
http://www.bom.gov.au/fwo/IDD60801/IDD60801.94216.json